sensor_id;sensor_type;location;lat;lon;timestamp;pressure;altitude;pressure_sealevel;temperature;humidity
76156;BME280;64906;51.290;7.348;2023-07-29T00:00:17;97966.25;;;21.69;54.46
76156;BME280;64906;51.290;7.348;2023-07-29T00:02:42;97965.75;;;21.67;54.81
76156;BME280;64906;51.290;7.348;2023-07-29T00:05:07;97961.91;;;21.68;54.51
76156;BME280;64906;51.290;7.348;2023-07-29T00:07:33;97952.34;;;21.66;54.52
76156;BME280;64906;51.290;7.348;2023-07-29T00:09:58;97957.06;;;21.65;54.76
76156;BME280;64906;51.290;7.348;2023-07-29T00:12:23;97946.84;;;21.66;54.84
76156;BME280;64906;51.290;7.348;2023-07-29T00:14:49;97948.31;;;21.63;54.81
76156;BME280;64906;51.290;7.348;2023-07-29T00:17:14;97948.31;;;21.63;54.84
76156;BME280;64906;51.290;7.348;2023-07-29T00:19:39;97951.06;;;21.63;54.84
76156;BME280;64906;51.290;7.348;2023-07-29T00:22:05;97946.38;;;21.64;54.73
76156;BME280;64906;51.290;7.348;2023-07-29T00:24:30;97948.00;;;21.65;54.95
76156;BME280;64906;51.290;7.348;2023-07-29T00:26:55;97939.56;;;21.61;54.89
76156;BME280;64906;51.290;7.348;2023-07-29T00:29:22;97932.94;;;21.62;54.99
76156;BME280;64906;51.290;7.348;2023-07-29T00:31:47;97940.41;;;21.62;54.53
76156;BME280;64906;51.290;7.348;2023-07-29T00:34:12;97943.78;;;21.67;54.84
76156;BME280;64906;51.290;7.348;2023-07-29T00:36:42;97928.44;;;21.66;54.68
76156;BME280;64906;51.290;7.348;2023-07-29T00:39:07;97935.06;;;21.65;54.61
76156;BME280;64906;51.290;7.348;2023-07-29T00:41:32;97937.19;;;21.68;54.88
76156;BME280;64906;51.290;7.348;2023-07-29T00:43:58;97928.44;;;21.66;55.09
76156;BME280;64906;51.290;7.348;2023-07-29T00:46:24;97921.81;;;21.67;54.72
76156;BME280;64906;51.290;7.348;2023-07-29T00:48:49;97915.66;;;21.62;55.08
76156;BME280;64906;51.290;7.348;2023-07-29T00:51:15;97914.22;;;21.64;55.02
76156;BME280;64906;51.290;7.348;2023-07-29T00:53:40;97914.03;;;21.61;54.96
76156;BME280;64906;51.290;7.348;2023-07-29T00:56:06;97921.94;;;21.62;55.20
76156;BME280;64906;51.290;7.348;2023-07-29T00:58:31;97920.34;;;21.61;54.80
76156;BME280;64906;51.290;7.348;2023-07-29T01:00:57;97921.16;;;21.62;54.82
76156;BME280;64906;51.290;7.348;2023-07-29T01:03:22;97916.97;;;21.64;54.56
76156;BME280;64906;51.290;7.348;2023-07-29T01:05:59;97917.59;;;21.61;54.75
76156;BME280;64906;51.290;7.348;2023-07-29T01:08:36;97913.41;;;21.64;54.90
76156;BME280;64906;51.290;7.348;2023-07-29T01:11:33;97912.13;;;21.70;54.64
76156;BME280;64906;51.290;7.348;2023-07-29T01:14:03;97905.19;;;21.64;54.72
76156;BME280;64906;51.290;7.348;2023-07-29T01:16:39;97908.88;;;21.59;54.87
76156;BME280;64906;51.290;7.348;2023-07-29T01:19:13;97902.91;;;21.57;54.93
76156;BME280;64906;51.290;7.348;2023-07-29T01:21:44;97899.97;;;21.62;54.75
76156;BME280;64906;51.290;7.348;2023-07-29T01:24:09;97908.22;;;21.62;55.42
76156;BME280;64906;51.290;7.348;2023-07-29T01:26:34;97905.47;;;21.62;55.10
76156;BME280;64906;51.290;7.348;2023-07-29T01:29:00;97898.38;;;21.61;55.32
76156;BME280;64906;51.290;7.348;2023-07-29T01:31:34;97890.78;;;21.58;55.52
76156;BME280;64906;51.290;7.348;2023-07-29T01:34:10;97897.56;;;21.61;55.25
76156;BME280;64906;51.290;7.348;2023-07-29T01:36:40;97899.84;;;21.59;55.30
76156;BME280;64906;51.290;7.348;2023-07-29T01:39:07;97892.38;;;21.59;55.33
76156;BME280;64906;51.290;7.348;2023-07-29T01:41:34;97896.28;;;21.58;55.62
76156;BME280;64906;51.290;7.348;2023-07-29T01:44:00;97894.19;;;21.55;55.62
76156;BME280;64906;51.290;7.348;2023-07-29T01:46:26;97885.47;;;21.62;55.15
76156;BME280;64906;51.290;7.348;2023-07-29T01:48:51;97882.22;;;21.60;55.07
76156;BME280;64906;51.290;7.348;2023-07-29T01:51:16;97881.91;;;21.61;55.01
76156;BME280;64906;51.290;7.348;2023-07-29T01:53:42;97885.28;;;21.58;55.14
76156;BME280;64906;51.290;7.348;2023-07-29T01:56:07;97886.91;;;21.59;55.39
76156;BME280;64906;51.290;7.348;2023-07-29T01:58:32;97890.28;;;21.56;55.09
76156;BME280;64906;51.290;7.348;2023-07-29T02:00:58;97881.22;;;21.56;55.34
76156;BME280;64906;51.290;7.348;2023-07-29T02:03:23;97883.19;;;21.55;55.40
76156;BME280;64906;51.290;7.348;2023-07-29T02:05:48;97884.47;;;21.58;55.17
76156;BME280;64906;51.290;7.348;2023-07-29T02:08:14;97883.69;;;21.57;55.07
76156;BME280;64906;51.290;7.348;2023-07-29T02:10:39;97888.69;;;21.55;55.31
76156;BME280;64906;51.290;7.348;2023-07-29T02:13:04;97880.44;;;21.55;55.27
76156;BME280;64906;51.290;7.348;2023-07-29T02:15:30;97877.06;;;21.58;55.20
76156;BME280;64906;51.290;7.348;2023-07-29T02:17:55;97865.41;;;21.61;54.98
76156;BME280;64906;51.290;7.348;2023-07-29T02:20:20;97867.66;;;21.59;54.94
76156;BME280;64906;51.290;7.348;2023-07-29T02:22:46;97865.56;;;21.56;54.88
76156;BME280;64906;51.290;7.348;2023-07-29T02:25:13;97869.94;;;21.57;55.39
76156;BME280;64906;51.290;7.348;2023-07-29T02:27:38;97862.81;;;21.56;55.38
76156;BME280;64906;51.290;7.348;2023-07-29T02:30:04;97860.91;;;21.57;54.88
76156;BME280;64906;51.290;7.348;2023-07-29T02:32:30;97855.72;;;21.55;54.90
76156;BME280;64906;51.290;7.348;2023-07-29T02:34:55;97846.84;;;21.58;54.73
76156;BME280;64906;51.290;7.348;2023-07-29T02:37:20;97843.59;;;21.56;54.95
76156;BME280;64906;51.290;7.348;2023-07-29T02:39:46;97847.00;;;21.53;55.30
76156;BME280;64906;51.290;7.348;2023-07-29T02:42:11;97849.75;;;21.53;54.93
76156;BME280;64906;51.290;7.348;2023-07-29T02:44:37;97843.94;;;21.55;54.95
76156;BME280;64906;51.290;7.348;2023-07-29T02:47:02;97854.09;;;21.54;55.14
76156;BME280;64906;51.290;7.348;2023-07-29T02:49:27;97859.59;;;21.54;55.06
76156;BME280;64906;51.290;7.348;2023-07-29T02:51:53;97861.22;;;21.55;55.14
76156;BME280;64906;51.290;7.348;2023-07-29T02:54:18;97855.91;;;21.59;55.08
76156;BME280;64906;51.290;7.348;2023-07-29T02:56:43;97849.09;;;21.56;55.09
76156;BME280;64906;51.290;7.348;2023-07-29T02:59:09;97843.59;;;21.56;54.84
76156;BME280;64906;51.290;7.348;2023-07-29T03:01:34;97854.59;;;21.56;54.92
76156;BME280;64906;51.290;7.348;2023-07-29T03:04:00;97854.09;;;21.54;54.95
76156;BME280;64906;51.290;7.348;2023-07-29T03:06:26;97850.56;;;21.54;55.24
76156;BME280;64906;51.290;7.348;2023-07-29T03:08:51;97854.91;;;21.55;54.92
76156;BME280;64906;51.290;7.348;2023-07-29T03:11:16;97853.47;;;21.57;55.06
76156;BME280;64906;51.290;7.348;2023-07-29T03:13:42;97854.91;;;21.55;54.94
76156;BME280;64906;51.290;7.348;2023-07-29T03:16:10;97864.28;;;21.54;55.13
76156;BME280;64906;51.290;7.348;2023-07-29T03:18:36;97860.22;;;21.51;54.93
76156;BME280;64906;51.290;7.348;2023-07-29T03:21:02;97868.16;;;21.53;55.03
76156;BME280;64906;51.290;7.348;2023-07-29T03:23:28;97866.72;;;21.55;55.19
76156;BME280;64906;51.290;7.348;2023-07-29T03:25:58;97867.50;;;21.56;54.76
76156;BME280;64906;51.290;7.348;2023-07-29T03:28:29;97858.81;;;21.54;54.86
76156;BME280;64906;51.290;7.348;2023-07-29T03:30:55;97863.78;;;21.52;55.15
76156;BME280;64906;51.290;7.348;2023-07-29T03:33:20;97855.09;;;21.58;54.79
76156;BME280;64906;51.290;7.348;2023-07-29T03:35:45;97856.84;;;21.54;54.65
76156;BME280;64906;51.290;7.348;2023-07-29T03:38:11;97856.69;;;21.51;54.81
76156;BME280;64906;51.290;7.348;2023-07-29T03:40:41;97855.22;;;21.53;54.85
76156;BME280;64906;51.290;7.348;2023-07-29T03:43:06;97846.19;;;21.53;54.97
76156;BME280;64906;51.290;7.348;2023-07-29T03:45:32;97852.16;;;21.55;54.97
76156;BME280;64906;51.290;7.348;2023-07-29T03:47:57;97850.22;;;21.55;54.94
76156;BME280;64906;51.290;7.348;2023-07-29T03:50:23;97846.50;;;21.51;54.87
76156;BME280;64906;51.290;7.348;2023-07-29T03:52:49;97843.75;;;21.51;55.08
76156;BME280;64906;51.290;7.348;2023-07-29T03:55:14;97848.78;;;21.58;54.45
76156;BME280;64906;51.290;7.348;2023-07-29T03:57:39;97851.84;;;21.56;54.69
76156;BME280;64906;51.290;7.348;2023-07-29T04:00:05;97855.72;;;21.55;54.72
76156;BME280;64906;51.290;7.348;2023-07-29T04:02:31;97864.91;;;21.59;54.32
76156;BME280;64906;51.290;7.348;2023-07-29T04:04:56;97863.66;;;21.57;54.87
76156;BME280;64906;51.290;7.348;2023-07-29T04:07:21;97851.50;;;21.58;54.43
76156;BME280;64906;51.290;7.348;2023-07-29T04:09:47;97846.84;;;21.58;54.57
76156;BME280;64906;51.290;7.348;2023-07-29T04:12:12;97856.50;;;21.56;54.89
76156;BME280;64906;51.290;7.348;2023-07-29T04:14:37;97851.34;;;21.54;54.99
76156;BME280;64906;51.290;7.348;2023-07-29T04:17:03;97847.00;;;21.53;54.89
76156;BME280;64906;51.290;7.348;2023-07-29T04:19:28;97843.94;;;21.55;54.74
76156;BME280;64906;51.290;7.348;2023-07-29T04:21:53;97851.03;;;21.56;54.63
76156;BME280;64906;51.290;7.348;2023-07-29T04:24:19;97854.09;;;21.54;55.10
76156;BME280;64906;51.290;7.348;2023-07-29T04:26:45;97846.50;;;21.51;54.92
76156;BME280;64906;51.290;7.348;2023-07-29T04:29:11;97839.56;;;21.54;55.13
76156;BME280;64906;51.290;7.348;2023-07-29T04:31:36;97853.31;;;21.54;54.86
76156;BME280;64906;51.290;7.348;2023-07-29T04:34:02;97849.41;;;21.55;54.76
76156;BME280;64906;51.290;7.348;2023-07-29T04:36:27;97846.19;;;21.53;54.94
76156;BME280;64906;51.290;7.348;2023-07-29T04:38:53;97851.34;;;21.54;54.85
76156;BME280;64906;51.290;7.348;2023-07-29T04:41:18;97843.28;;;21.58;54.42
76156;BME280;64906;51.290;7.348;2023-07-29T04:43:43;97846.34;;;21.56;54.57
76156;BME280;64906;51.290;7.348;2023-07-29T04:46:08;97848.59;;;21.54;54.62
76156;BME280;64906;51.290;7.348;2023-07-29T04:48:34;97845.41;;;21.52;55.00
76156;BME280;64906;51.290;7.348;2023-07-29T04:50:59;97851.22;;;21.51;55.06
76156;BME280;64906;51.290;7.348;2023-07-29T04:53:24;97856.38;;;21.52;54.71
76156;BME280;64906;51.290;7.348;2023-07-29T04:55:50;97856.38;;;21.52;54.71
76156;BME280;64906;51.290;7.348;2023-07-29T04:58:15;97861.88;;;21.52;54.82
76156;BME280;64906;51.290;7.348;2023-07-29T05:00:40;97865.41;;;21.53;54.56
76156;BME280;64906;51.290;7.348;2023-07-29T05:03:06;97861.53;;;21.54;54.83
76156;BME280;64906;51.290;7.348;2023-07-29T05:05:31;97866.88;;;21.50;54.62
76156;BME280;64906;51.290;7.348;2023-07-29T05:07:57;97868.16;;;21.53;54.62
76156;BME280;64906;51.290;7.348;2023-07-29T05:10:22;97882.19;;;21.51;55.04
76156;BME280;64906;51.290;7.348;2023-07-29T05:12:47;97881.09;;;21.52;54.55
76156;BME280;64906;51.290;7.348;2023-07-29T05:15:13;97890.44;;;21.51;54.53
76156;BME280;64906;51.290;7.348;2023-07-29T05:17:38;97878.81;;;21.54;54.56
76156;BME280;64906;51.290;7.348;2023-07-29T05:20:04;97883.19;;;21.55;54.45
76156;BME280;64906;51.290;7.348;2023-07-29T05:22:30;97879.81;;;21.58;54.62
76156;BME280;64906;51.290;7.348;2023-07-29T05:24:55;97877.06;;;21.58;54.67
76156;BME280;64906;51.290;7.348;2023-07-29T05:27:20;97867.69;;;21.51;54.56
76156;BME280;64906;51.290;7.348;2023-07-29T05:29:45;97865.06;;;21.54;54.37
76156;BME280;64906;51.290;7.348;2023-07-29T05:32:11;97868.16;;;21.53;54.54
76156;BME280;64906;51.290;7.348;2023-07-29T05:34:36;97869.47;;;21.55;54.79
76156;BME280;64906;51.290;7.348;2023-07-29T05:37:02;97861.22;;;21.55;54.65
76156;BME280;64906;51.290;7.348;2023-07-29T05:39:27;97861.72;;;21.57;54.45
76156;BME280;64906;51.290;7.348;2023-07-29T05:41:52;97858.66;;;21.59;54.41
76156;BME280;64906;51.290;7.348;2023-07-29T05:44:18;97862.66;;;21.61;54.71
76156;BME280;64906;51.290;7.348;2023-07-29T05:46:43;97858.31;;;21.60;54.58
76156;BME280;64906;51.290;7.348;2023-07-29T05:49:08;97861.84;;;21.61;54.56
76156;BME280;64906;51.290;7.348;2023-07-29T05:51:33;97862.66;;;21.61;54.43
76156;BME280;64906;51.290;7.348;2023-07-29T05:53:59;97873.00;;;21.56;55.22
76156;BME280;64906;51.290;7.348;2023-07-29T05:56:24;97876.56;;;21.56;54.62
76156;BME280;64906;51.290;7.348;2023-07-29T05:58:49;97888.69;;;21.55;54.87
76156;BME280;64906;51.290;7.348;2023-07-29T06:01:15;97898.84;;;21.55;55.28
76156;BME280;64906;51.290;7.348;2023-07-29T06:03:40;97911.75;;;21.54;54.87
76156;BME280;64906;51.290;7.348;2023-07-29T06:06:05;97913.72;;;21.54;55.20
76156;BME280;64906;51.290;7.348;2023-07-29T06:08:30;97924.72;;;21.54;54.88
76156;BME280;64906;51.290;7.348;2023-07-29T06:10:59;97928.56;;;21.53;55.03
76156;BME280;64906;51.290;7.348;2023-07-29T06:13:24;97916.78;;;21.52;54.98
76156;BME280;64906;51.290;7.348;2023-07-29T06:15:50;97913.41;;;21.55;55.14
76156;BME280;64906;51.290;7.348;2023-07-29T06:18:15;97908.22;;;21.54;55.07
76156;BME280;64906;51.290;7.348;2023-07-29T06:20:40;97918.56;;;21.57;55.10
76156;BME280;64906;51.290;7.348;2023-07-29T06:23:06;97923.25;;;21.56;54.82
76156;BME280;64906;51.290;7.348;2023-07-29T06:25:31;97921.63;;;21.55;55.00
76156;BME280;64906;51.290;7.348;2023-07-29T06:27:57;97945.22;;;21.56;55.43
76156;BME280;64906;51.290;7.348;2023-07-29T06:30:23;97944.72;;;21.54;55.18
76156;BME280;64906;51.290;7.348;2023-07-29T06:32:48;97943.63;;;21.55;55.08
76156;BME280;64906;51.290;7.348;2023-07-29T06:35:14;97946.69;;;21.54;55.08
76156;BME280;64906;51.290;7.348;2023-07-29T06:37:39;97955.09;;;21.57;54.75
76156;BME280;64906;51.290;7.348;2023-07-29T06:40:05;97952.63;;;21.56;55.18
76156;BME280;64906;51.290;7.348;2023-07-29T06:42:30;97953.13;;;21.58;55.29
76156;BME280;64906;51.290;7.348;2023-07-29T06:44:55;97951.84;;;21.55;55.54
76156;BME280;64906;51.290;7.348;2023-07-29T06:47:21;97959.28;;;21.55;55.24
76156;BME280;64906;51.290;7.348;2023-07-29T06:49:46;97967.19;;;21.56;55.60
76156;BME280;64906;51.290;7.348;2023-07-29T06:52:12;97976.56;;;21.55;55.35
76156;BME280;64906;51.290;7.348;2023-07-29T06:54:37;97972.69;;;21.56;55.31
76156;BME280;64906;51.290;7.348;2023-07-29T06:57:03;97969.94;;;21.56;55.40
76156;BME280;64906;51.290;7.348;2023-07-29T06:59:28;97968.31;;;21.55;55.28
76156;BME280;64906;51.290;7.348;2023-07-29T07:01:53;97974.31;;;21.57;55.37
76156;BME280;64906;51.290;7.348;2023-07-29T07:04:19;97968.50;;;21.59;54.92
76156;BME280;64906;51.290;7.348;2023-07-29T07:06:44;97964.63;;;21.60;55.26
76156;BME280;64906;51.290;7.348;2023-07-29T07:09:09;97969.97;;;21.65;54.95
76156;BME280;64906;51.290;7.348;2023-07-29T07:11:35;97971.75;;;21.69;54.63
76156;BME280;64906;51.290;7.348;2023-07-29T07:14:00;97967.25;;;21.73;55.23
76156;BME280;64906;51.290;7.348;2023-07-29T07:16:25;97968.84;;;21.74;55.13
76156;BME280;64906;51.290;7.348;2023-07-29T07:18:51;97965.13;;;21.70;55.10
76156;BME280;64906;51.290;7.348;2023-07-29T07:21:16;97974.66;;;21.73;55.08
76156;BME280;64906;51.290;7.348;2023-07-29T07:23:42;97972.75;;;21.73;54.84
76156;BME280;64906;51.290;7.348;2023-07-29T07:26:07;97977.88;;;21.66;55.21
76156;BME280;64906;51.290;7.348;2023-07-29T07:28:32;97976.44;;;21.69;55.16
76156;BME280;64906;51.290;7.348;2023-07-29T07:30:57;97971.41;;;21.71;55.33
76156;BME280;64906;51.290;7.348;2023-07-29T07:33:24;97976.28;;;21.74;55.64
76156;BME280;64906;51.290;7.348;2023-07-29T07:35:49;97968.22;;;21.77;55.17
76156;BME280;64906;51.290;7.348;2023-07-29T07:38:15;97966.09;;;21.74;55.11
76156;BME280;64906;51.290;7.348;2023-07-29T07:40:40;97971.47;;;21.79;55.14
76156;BME280;64906;51.290;7.348;2023-07-29T07:43:05;97966.63;;;21.76;55.17
76156;BME280;64906;51.290;7.348;2023-07-29T07:45:32;97966.25;;;21.69;54.98
76156;BME280;64906;51.290;7.348;2023-07-29T07:47:58;97972.56;;;21.70;55.20
76156;BME280;64906;51.290;7.348;2023-07-29T07:50:23;97970.63;;;21.70;55.15
76156;BME280;64906;51.290;7.348;2023-07-29T07:52:49;97970.00;;;21.73;55.25
76156;BME280;64906;51.290;7.348;2023-07-29T07:55:14;97973.72;;;21.77;55.36
76156;BME280;64906;51.290;7.348;2023-07-29T07:57:40;97974.88;;;21.76;55.05
76156;BME280;64906;51.290;7.348;2023-07-29T08:00:05;97977.28;;;21.78;54.69
76156;BME280;64906;51.290;7.348;2023-07-29T08:02:31;97974.72;;;21.81;54.64
76156;BME280;64906;51.290;7.348;2023-07-29T08:04:56;97974.22;;;21.79;54.60
76156;BME280;64906;51.290;7.348;2023-07-29T08:07:22;97978.28;;;21.82;54.51
76156;BME280;64906;51.290;7.348;2023-07-29T08:09:47;97975.38;;;21.78;54.46
76156;BME280;64906;51.290;7.348;2023-07-29T08:12:12;97972.47;;;21.83;54.49
76156;BME280;64906;51.290;7.348;2023-07-29T08:14:37;97964.69;;;21.77;55.12
76156;BME280;64906;51.290;7.348;2023-07-29T08:17:03;97966.31;;;21.78;54.88
76156;BME280;64906;51.290;7.348;2023-07-29T08:19:28;97968.41;;;21.81;54.76
76156;BME280;64906;51.290;7.348;2023-07-29T08:21:53;97973.44;;;21.87;54.68
76156;BME280;64906;51.290;7.348;2023-07-29T08:24:19;97978.44;;;21.85;54.53
76156;BME280;64906;51.290;7.348;2023-07-29T08:26:44;97976.97;;;21.79;54.49
76156;BME280;64906;51.290;7.348;2023-07-29T08:29:10;97992.63;;;21.79;54.91
76156;BME280;64906;51.290;7.348;2023-07-29T08:31:35;97991.84;;;21.78;54.98
76156;BME280;64906;51.290;7.348;2023-07-29T08:34:01;97987.13;;;21.79;54.75
76156;BME280;64906;51.290;7.348;2023-07-29T08:36:26;97994.72;;;21.73;55.07
76156;BME280;64906;51.290;7.348;2023-07-29T08:38:51;97991.34;;;21.76;54.64
76156;BME280;64906;51.290;7.348;2023-07-29T08:41:25;97991.84;;;21.78;54.64
76156;BME280;64906;51.290;7.348;2023-07-29T08:46:26;97987.00;;;21.84;54.79
76156;BME280;64906;51.290;7.348;2023-07-29T08:48:52;97987.31;;;21.82;54.57
76156;BME280;64906;51.290;7.348;2023-07-29T08:51:19;97982.63;;;21.83;54.70
76156;BME280;64906;51.290;7.348;2023-07-29T08:53:44;97989.75;;;21.92;54.52
76156;BME280;64906;51.290;7.348;2023-07-29T08:56:10;97985.59;;;21.95;54.39
76156;BME280;64906;51.290;7.348;2023-07-29T08:58:36;97979.91;;;21.91;54.05
76156;BME280;64906;51.290;7.348;2023-07-29T09:01:01;97986.38;;;21.95;53.96
76156;BME280;64906;51.290;7.348;2023-07-29T09:03:27;97986.38;;;22.04;54.08
76156;BME280;64906;51.290;7.348;2023-07-29T09:05:52;97984.47;;;22.04;53.72
76156;BME280;64906;51.290;7.348;2023-07-29T09:08:18;97974.56;;;22.03;53.84
76156;BME280;64906;51.290;7.348;2023-07-29T09:10:44;97982.19;;;22.06;53.71
76156;BME280;64906;51.290;7.348;2023-07-29T09:13:09;97980.06;;;22.03;53.85
76156;BME280;64906;51.290;7.348;2023-07-29T09:15:36;97977.31;;;22.03;53.39
76156;BME280;64906;51.290;7.348;2023-07-29T09:18:13;97987.19;;;22.04;53.48
76156;BME280;64906;51.290;7.348;2023-07-29T09:20:39;97990.91;;;22.08;53.56
76156;BME280;64906;51.290;7.348;2023-07-29T09:23:07;97979.13;;;22.08;53.66
76156;BME280;64906;51.290;7.348;2023-07-29T09:25:34;97976.69;;;22.06;53.41
76156;BME280;64906;51.290;7.348;2023-07-29T09:28:00;97984.28;;;22.01;53.54
76156;BME280;64906;51.290;7.348;2023-07-29T09:30:26;97991.72;;;22.00;53.48
76156;BME280;64906;51.290;7.348;2023-07-29T09:32:56;97982.66;;;22.00;54.08
76156;BME280;64906;51.290;7.348;2023-07-29T09:35:22;97979.59;;;22.01;53.84
76156;BME280;64906;51.290;7.348;2023-07-29T09:37:47;97993.81;;;22.12;54.21
76156;BME280;64906;51.290;7.348;2023-07-29T09:40:17;97998.69;;;22.06;54.19
76156;BME280;64906;51.290;7.348;2023-07-29T09:42:55;97998.84;;;22.10;54.28
76156;BME280;64906;51.290;7.348;2023-07-29T09:45:24;97997.88;;;22.06;53.74
76156;BME280;64906;51.290;7.348;2023-07-29T09:47:50;97994.81;;;22.07;54.40
76156;BME280;64906;51.290;7.348;2023-07-29T09:50:15;97995.75;;;22.11;54.34
76156;BME280;64906;51.290;7.348;2023-07-29T09:52:41;97991.41;;;22.10;54.46
76156;BME280;64906;51.290;7.348;2023-07-29T09:55:07;97986.41;;;22.12;54.13
76156;BME280;64906;51.290;7.348;2023-07-29T09:57:33;97980.75;;;22.17;53.85
76156;BME280;64906;51.290;7.348;2023-07-29T09:59:59;97981.88;;;22.25;53.64
76156;BME280;64906;51.290;7.348;2023-07-29T10:02:24;97994.34;;;22.22;53.57
76156;BME280;64906;51.290;7.348;2023-07-29T10:04:54;97991.59;;;22.22;53.57
76156;BME280;64906;51.290;7.348;2023-07-29T10:07:20;98002.88;;;22.29;53.73
76156;BME280;64906;51.290;7.348;2023-07-29T10:09:46;97998.03;;;22.26;53.42
76156;BME280;64906;51.290;7.348;2023-07-29T10:12:13;97999.50;;;22.24;53.65
76156;BME280;64906;51.290;7.348;2023-07-29T10:14:38;97999.69;;;22.27;54.07
76156;BME280;64906;51.290;7.348;2023-07-29T10:17:05;98000.94;;;22.21;53.89
76156;BME280;64906;51.290;7.348;2023-07-29T10:19:31;98001.91;;;22.17;54.22
76156;BME280;64906;51.290;7.348;2023-07-29T10:21:59;98003.06;;;22.16;54.37
76156;BME280;64906;51.290;7.348;2023-07-29T10:24:30;97999.00;;;22.13;54.25
76156;BME280;64906;51.290;7.348;2023-07-29T10:26:58;98004.00;;;22.11;54.83
76156;BME280;64906;51.290;7.348;2023-07-29T10:29:28;98005.16;;;22.10;54.16
76156;BME280;64906;51.290;7.348;2023-07-29T10:31:54;97998.22;;;22.13;54.49
76156;BME280;64906;51.290;7.348;2023-07-29T10:34:22;98007.75;;;22.15;54.42
76156;BME280;64906;51.290;7.348;2023-07-29T10:36:48;98012.41;;;22.15;54.58
76156;BME280;64906;51.290;7.348;2023-07-29T10:39:14;97999.16;;;22.17;54.79
76156;BME280;64906;51.290;7.348;2023-07-29T10:42:02;97997.53;;;22.24;54.30
76156;BME280;64906;51.290;7.348;2023-07-29T10:49:40;97989.97;;;22.30;53.87
76156;BME280;64906;51.290;7.348;2023-07-29T10:52:05;97995.28;;;22.26;54.07
76156;BME280;64906;51.290;7.348;2023-07-29T10:54:42;97998.03;;;22.26;54.18
76156;BME280;64906;51.290;7.348;2023-07-29T10:57:07;97987.69;;;22.23;54.21
76156;BME280;64906;51.290;7.348;2023-07-29T10:59:32;98000.13;;;22.29;53.75
76156;BME280;64906;51.290;7.348;2023-07-29T11:02:00;97997.22;;;22.34;53.86
76156;BME280;64906;51.290;7.348;2023-07-29T11:04:29;98003.72;;;22.30;53.98
76156;BME280;64906;51.290;7.348;2023-07-29T11:09:42;98000.63;;;22.31;53.75
76156;BME280;64906;51.290;7.348;2023-07-29T11:15:24;97997.88;;;22.40;53.45
76156;BME280;64906;51.290;7.348;2023-07-29T11:17:54;97989.31;;;22.41;53.33
76156;BME280;64906;51.290;7.348;2023-07-29T11:20:24;97982.03;;;22.45;53.35
76156;BME280;64906;51.290;7.348;2023-07-29T11:22:50;97982.50;;;22.47;53.34
76156;BME280;64906;51.290;7.348;2023-07-29T11:25:17;97979.44;;;22.49;52.91
76156;BME280;64906;51.290;7.348;2023-07-29T11:27:43;97984.13;;;22.48;53.05
76156;BME280;64906;51.290;7.348;2023-07-29T11:30:11;97980.25;;;22.49;53.04
76156;BME280;64906;51.290;7.348;2023-07-29T11:32:38;97972.47;;;22.51;52.84
76156;BME280;64906;51.290;7.348;2023-07-29T11:35:11;97972.47;;;22.51;53.02
76156;BME280;64906;51.290;7.348;2023-07-29T11:37:38;97970.25;;;22.53;52.97
76156;BME280;64906;51.290;7.348;2023-07-29T11:40:05;97981.09;;;22.58;52.98
76156;BME280;64906;51.290;7.348;2023-07-29T11:42:35;97978.00;;;22.60;52.30
76156;BME280;64906;51.290;7.348;2023-07-29T11:45:01;97987.38;;;22.68;52.27
76156;BME280;64906;51.290;7.348;2023-07-29T11:47:28;97986.56;;;22.67;52.29
76156;BME280;64906;51.290;7.348;2023-07-29T11:49:53;97983.34;;;22.65;52.62
76156;BME280;64906;51.290;7.348;2023-07-29T11:52:19;97990.13;;;22.59;52.62
76156;BME280;64906;51.290;7.348;2023-07-29T11:54:47;97987.06;;;22.60;52.43
76156;BME280;64906;51.290;7.348;2023-07-29T11:57:13;97982.03;;;22.63;52.83
76156;BME280;64906;51.290;7.348;2023-07-29T11:59:40;97986.91;;;22.57;53.02
76156;BME280;64906;51.290;7.348;2023-07-29T12:02:15;97988.19;;;22.59;52.95
76156;BME280;64906;51.290;7.348;2023-07-29T12:04:41;97984.47;;;22.55;52.56
76156;BME280;64906;51.290;7.348;2023-07-29T12:07:08;97981.56;;;22.60;52.85
76156;BME280;64906;51.290;7.348;2023-07-29T12:09:37;97975.41;;;22.64;52.51
76156;BME280;64906;51.290;7.348;2023-07-29T12:12:03;97966.03;;;22.65;52.63
76156;BME280;64906;51.290;7.348;2023-07-29T12:14:30;97961.78;;;22.67;52.44
76156;BME280;64906;51.290;7.348;2023-07-29T12:16:55;97972.34;;;22.65;52.71
76156;BME280;64906;51.290;7.348;2023-07-29T12:19:21;97980.44;;;22.70;52.70
76156;BME280;64906;51.290;7.348;2023-07-29T12:21:47;97975.72;;;22.71;52.81
76156;BME280;64906;51.290;7.348;2023-07-29T12:24:13;97985.44;;;22.68;52.74
76156;BME280;64906;51.290;7.348;2023-07-29T12:26:40;97987.22;;;22.73;52.33
76156;BME280;64906;51.290;7.348;2023-07-29T12:29:13;97975.53;;;22.76;52.62
76156;BME280;64906;51.290;7.348;2023-07-29T12:31:39;97979.44;;;22.75;52.82
76156;BME280;64906;51.290;7.348;2023-07-29T12:34:04;97984.28;;;22.78;52.16
76156;BME280;64906;51.290;7.348;2023-07-29T12:36:43;97977.00;;;22.82;52.12
76156;BME280;64906;51.290;7.348;2023-07-29T12:39:17;97985.25;;;22.82;52.53
76156;BME280;64906;51.290;7.348;2023-07-29T12:41:42;97987.03;;;22.78;52.19
76156;BME280;64906;51.290;7.348;2023-07-29T12:44:08;97970.53;;;22.78;52.26
76156;BME280;64906;51.290;7.348;2023-07-29T12:46:33;97976.19;;;22.81;52.16
76156;BME280;64906;51.290;7.348;2023-07-29T12:48:58;97970.84;;;22.85;52.13
76156;BME280;64906;51.290;7.348;2023-07-29T12:51:24;97971.50;;;22.82;52.59
76156;BME280;64906;51.290;7.348;2023-07-29T12:53:49;97969.84;;;22.89;51.99
76156;BME280;64906;51.290;7.348;2023-07-29T12:56:14;97973.28;;;22.86;52.32
76156;BME280;64906;51.290;7.348;2023-07-29T12:58:40;97977.63;;;22.87;52.48
76156;BME280;64906;51.290;7.348;2023-07-29T13:01:05;97973.75;;;22.88;52.30
76156;BME280;64906;51.290;7.348;2023-07-29T13:03:30;97976.03;;;22.86;52.40
76156;BME280;64906;51.290;7.348;2023-07-29T13:05:55;97969.22;;;22.84;52.13
76156;BME280;64906;51.290;7.348;2023-07-29T13:08:21;97976.63;;;22.92;52.42